EDDP/LEJ METAR and TAF weather

Enter ICAO airport designator
Station Type Date Time Source
EDDP METAR 2018/04/19 13:20 UTC NOAA

EDDP 191320Z 09008KT 070V130 CAVOK 24/12 Q1030 NOSIG


Station Type Date Time Source
EDDP Decoded METAR 2018/04/19 13:20 UTC NOAA

Leipzig-Schkeuditz, Germany (EDDP) 51-25N 012-14E 149M
Apr 19, 2018 - 09:20 AM EDT / 2018.04.19 1320 UTC
Wind: from the E (090 degrees) at 9 MPH (8 KT) (direction variable):0
Visibility: greater than 7 mile(s):0
Temperature: 75 F (24 C)
Dew Point: 53 F (12 C)
Relative Humidity: 46%
Pressure (altimeter): 30.42 in. Hg (1030 hPa)
ob: EDDP 191320Z 09008KT 070V130 CAVOK 24/12 Q1030 NOSIG
cycle: 13

Station Type Date Time Source
EDDP TAF 2018/04/19 12:27 UTC NOAA

TAF EDDP 191100Z 1912/2012 09006KT CAVOK
BECMG 1922/1924 15006KT


Example: see airport list